Time,TemperatureF,DewpointF,PressureIn,WindDirection,WindDirectionDegrees,WindSpeedMPH,WindSpeedGustMPH,Humidity,HourlyPrecipIn,Conditions,Clouds,dailyrainin,SolarRadiationWatts/m^2,SoftwareType,DateUTC
2013-08-20 00:05:00,69.9,65.2,22.09,SE,140,2.0,3.0,85,0.00,,,0.00,0,Wunderground v.1.15,2013-08-20 05:05:00,
2013-08-20 00:15:00,69.5,65.1,22.09,SE,140,1.0,1.0,86,0.00,,,0.00,0,Wunderground v.1.15,2013-08-20 05:15:00,
2013-08-20 00:20:00,69.3,65.3,22.09,SE,141,1.0,3.0,87,0.00,,,0.00,0,Wunderground v.1.15,2013-08-20 05:20:00,
2013-08-20 00:30:00,69.2,65.2,22.09,SSE,148,3.0,3.0,87,0.00,,,0.00,0,Wunderground v.1.15,2013-08-20 05:30:00,
2013-08-20 00:40:00,69.1,65.1,22.09,SSE,150,3.0,3.0,87,0.00,,,0.00,0,Wunderground v.1.15,2013-08-20 05:40:00,
2013-08-20 00:45:00,69.1,65.1,22.09,SSE,153,2.0,3.0,87,0.00,,,0.00,0,Wunderground v.1.15,2013-08-20 05:45:00,
2013-08-20 00:55:00,68.9,64.9,22.09,SSE,153,2.0,2.0,87,0.00,,,0.00,0,Wunderground v.1.15,2013-08-20 05:55:00,
2013-08-20 01:05:00,68.7,64.7,22.09,SSE,153,1.0,1.0,87,0.00,,,0.00,0,Wunderground v.1.15,2013-08-20 06:05:00,
2013-08-20 01:10:00,68.8,64.8,22.09,SSE,153,1.0,3.0,87,0.00,,,0.00,0,Wunderground v.1.15,2013-08-20 06:10:00,
2013-08-20 01:20:00,69.2,64.8,22.09,SSE,153,1.0,1.0,86,0.00,,,0.00,0,Wunderground v.1.15,2013-08-20 06:20:00,
2013-08-20 01:30:00,69.2,64.8,22.09,SSE,157,2.0,2.0,86,0.00,,,0.00,0,Wunderground v.1.15,2013-08-20 06:30:00,
2013-08-20 01:40:00,68.9,64.5,22.09,SSE,159,1.0,1.0,86,0.00,,,0.00,0,Wunderground v.1.15,2013-08-20 06:40:00,
2013-08-20 01:50:00,68.7,64.7,22.09,SSE,158,1.0,1.0,87,0.00,,,0.00,0,Wunderground v.1.15,2013-08-20 06:50:00,
2013-08-20 01:55:00,68.6,64.6,18.64,SSE,158,1.0,1.0,87,0.00,,,0.00,0,Wunderground v.1.15,2013-08-20 06:55:00,
2013-08-20 02:05:00,68.4,64.4,18.64,SSE,158,0.0,1.0,87,0.00,,,0.00,0,Wunderground v.1.15,2013-08-20 07:05:00,
2013-08-20 02:15:00,68.4,64.4,18.64,SSE,159,1.0,1.0,87,0.00,,,0.00,0,Wunderground v.1.15,2013-08-20 07:15:00,
2013-08-20 02:25:00,68.6,64.6,18.64,SSE,157,2.0,2.0,87,0.00,,,0.00,0,Wunderground v.1.15,2013-08-20 07:25:00,
2013-08-20 02:30:00,68.6,64.6,18.64,SSE,157,1.0,1.0,87,0.00,,,0.00,0,Wunderground v.1.15,2013-08-20 07:30:00,
2013-08-20 02:40:00,68.6,64.6,18.64,SSE,159,2.0,2.0,87,0.00,,,0.00,0,Wunderground v.1.15,2013-08-20 07:40:00,
2013-08-20 02:50:00,68.6,64.6,18.64,SSE,158,1.0,1.0,87,0.00,,,0.00,0,Wunderground v.1.15,2013-08-20 07:50:00,
2013-08-20 02:55:00,68.5,64.5,18.64,SSE,158,1.0,1.0,87,0.00,,,0.00,0,Wunderground v.1.15,2013-08-20 07:55:00,
2013-08-20 03:05:00,68.4,64.4,18.64,SSE,158,1.0,2.0,87,0.00,,,0.00,0,Wunderground v.1.15,2013-08-20 08:05:00,
2013-08-20 03:15:00,68.2,64.5,18.64,SSE,158,2.0,3.0,88,0.00,,,0.00,0,Wunderground v.1.15,2013-08-20 08:15:00,
2013-08-20 03:25:00,68.0,64.3,18.64,SSE,158,0.0,1.0,88,0.00,,,0.00,0,Wunderground v.1.15,2013-08-20 08:25:00,
2013-08-20 03:35:00,67.7,64.0,18.64,SSE,158,0.0,0.0,88,0.00,,,0.00,0,Wunderground v.1.15,2013-08-20 08:35:00,
2013-08-20 03:40:00,67.6,64.2,18.64,SSE,158,0.0,0.0,89,0.00,,,0.00,0,Wunderground v.1.15,2013-08-20 08:40:00,
2013-08-20 03:50:00,67.3,63.9,18.64,SSE,158,0.0,0.0,89,0.00,,,0.00,0,Wunderground v.1.15,2013-08-20 08:50:00,
2013-08-20 04:00:00,67.2,64.2,18.64,SSE,158,0.0,0.0,90,0.00,,,0.00,0,Wunderground v.1.15,2013-08-20 09:00:00,
2013-08-20 04:10:00,67.1,64.1,18.64,SSE,158,0.0,0.0,90,0.00,,,0.00,0,Wunderground v.1.15,2013-08-20 09:10:00,
2013-08-20 04:20:00,67.0,64.0,18.64,SSE,158,0.0,1.0,90,0.00,,,0.00,0,Wunderground v.1.15,2013-08-20 09:20:00,
2013-08-20 04:25:00,67.0,64.0,18.64,SSE,158,1.0,1.0,90,0.00,,,0.00,0,Wunderground v.1.15,2013-08-20 09:25:00,
2013-08-20 04:35:00,67.0,64.3,18.64,SSE,167,1.0,1.0,91,0.00,,,0.00,0,Wunderground v.1.15,2013-08-20 09:35:00,
2013-08-20 04:45:00,67.0,64.3,18.64,South,169,1.0,1.0,91,0.00,,,0.00,0,Wunderground v.1.15,2013-08-20 09:45:00,
2013-08-20 04:50:00,66.9,64.2,18.64,SSE,167,1.0,2.0,91,0.00,,,0.00,0,Wunderground v.1.15,2013-08-20 09:50:00,
2013-08-20 05:00:00,67.0,64.3,18.64,SSW,194,2.0,2.0,91,0.00,,,0.00,0,Wunderground v.1.15,2013-08-20 10:00:00,
2013-08-20 05:10:00,66.9,64.2,18.64,South,186,1.0,1.0,91,0.00,,,0.00,0,Wunderground v.1.15,2013-08-20 10:10:00,
2013-08-20 05:15:00,66.8,64.1,18.64,South,186,0.0,1.0,91,0.00,,,0.00,0,Wunderground v.1.15,2013-08-20 10:15:00,
2013-08-20 05:25:00,66.7,64.0,18.64,South,186,1.0,2.0,91,0.00,,,0.00,0,Wunderground v.1.15,2013-08-20 10:25:00,
2013-08-20 05:35:00,66.6,63.9,18.64,South,186,0.0,0.0,91,0.00,,,0.00,0,Wunderground v.1.15,2013-08-20 10:35:00,
2013-08-20 05:45:00,66.4,63.7,18.64,South,186,0.0,0.0,91,0.00,,,0.00,0,Wunderground v.1.15,2013-08-20 10:45:00,
2013-08-20 05:55:00,66.3,63.9,18.64,South,186,0.0,1.0,92,0.00,,,0.00,0,Wunderground v.1.15,2013-08-20 10:55:00,
2013-08-20 06:00:00,66.2,63.5,18.64,South,186,0.0,0.0,91,0.00,,,0.00,0,Wunderground v.1.15,2013-08-20 11:00:00,
2013-08-20 06:10:00,66.1,63.7,18.64,South,186,0.0,0.0,92,0.00,,,0.00,0,Wunderground v.1.15,2013-08-20 11:10:00,
2013-08-20 06:15:00,66.1,63.7,18.64,South,186,0.0,0.0,92,0.00,,,0.00,0,Wunderground v.1.15,2013-08-20 11:15:00,
2013-08-20 06:25:00,66.0,63.6,18.64,South,186,0.0,0.0,92,0.00,,,0.00,0,Wunderground v.1.15,2013-08-20 11:25:00,
2013-08-20 06:35:00,65.9,63.5,18.64,South,186,0.0,0.0,92,0.00,,,0.00,0,Wunderground v.1.15,2013-08-20 11:35:00,
2013-08-20 06:40:00,65.9,63.5,18.64,South,186,0.0,0.0,92,0.00,,,0.00,7,Wunderground v.1.15,2013-08-20 11:40:00,
2013-08-20 06:50:00,65.9,63.5,18.64,South,186,0.0,1.0,92,0.00,,,0.00,16,Wunderground v.1.15,2013-08-20 11:50:00,
2013-08-20 07:00:00,66.0,63.6,18.64,South,178,0.0,0.0,92,0.00,,,0.00,32,Wunderground v.1.15,2013-08-20 12:00:00,
2013-08-20 07:10:00,66.1,64.0,18.64,South,178,0.0,0.0,93,0.00,,,0.00,51,Wunderground v.1.15,2013-08-20 12:10:00,
2013-08-20 07:15:00,66.2,63.8,18.64,South,178,0.0,0.0,92,0.00,,,0.00,62,Wunderground v.1.15,2013-08-20 12:15:00,
2013-08-20 07:25:00,66.6,64.2,18.64,South,180,0.0,1.0,92,0.00,,,0.00,84,Wunderground v.1.15,2013-08-20 12:25:00,
2013-08-20 07:35:00,67.1,64.7,18.64,South,189,1.0,1.0,92,0.00,,,0.00,105,Wunderground v.1.15,2013-08-20 12:35:00,
2013-08-20 07:45:00,67.6,64.9,18.64,South,188,1.0,2.0,91,0.00,,,0.00,141,Wunderground v.1.15,2013-08-20 12:45:00,
2013-08-20 07:50:00,68.0,65.3,18.64,SSW,212,1.0,1.0,91,0.00,,,0.00,155,Wunderground v.1.15,2013-08-20 12:50:00,
2013-08-20 08:00:00,68.7,65.6,18.64,SSW,200,0.0,1.0,90,0.00,,,0.00,190,Wunderground v.1.15,2013-08-20 13:00:00,
2013-08-20 08:10:00,69.5,66.1,18.64,South,190,1.0,1.0,89,0.00,,,0.00,227,Wunderground v.1.15,2013-08-20 13:10:00,
2013-08-20 08:20:00,70.5,66.8,18.64,SSW,213,2.0,2.0,88,0.00,,,0.00,278,Wunderground v.1.15,2013-08-20 13:20:00,
2013-08-20 08:30:00,71.4,67.0,18.64,SSW,211,2.0,2.0,86,0.00,,,0.00,283,Wunderground v.1.15,2013-08-20 13:30:00,
2013-08-20 08:40:00,72.6,67.5,18.64,SSW,207,2.0,2.0,84,0.00,,,0.00,315,Wunderground v.1.15,2013-08-20 13:40:00,
2013-08-20 08:45:00,73.1,67.6,18.64,SW,214,2.0,2.0,83,0.00,,,0.00,336,Wunderground v.1.15,2013-08-20 13:45:00,
2013-08-20 08:55:00,74.1,68.3,18.64,SW,219,3.0,5.0,82,0.00,,,0.00,367,Wunderground v.1.15,2013-08-20 13:55:00,
2013-08-20 09:00:00,74.6,68.4,18.64,SSW,206,3.0,3.0,81,0.00,,,0.00,385,Wunderground v.1.15,2013-08-20 14:00:00,
2013-08-20 09:10:00,75.2,67.9,18.64,SW,218,4.0,4.0,78,0.00,,,0.00,417,Wunderground v.1.15,2013-08-20 14:10:00,
2013-08-20 09:20:00,75.7,68.7,18.64,SW,218,4.0,7.0,79,0.00,,,0.00,448,Wunderground v.1.15,2013-08-20 14:20:00,
2013-08-20 09:25:00,76.2,68.8,18.64,SW,227,5.0,7.0,78,0.00,,,0.00,459,Wunderground v.1.15,2013-08-20 14:25:00,
2013-08-20 09:35:00,76.7,68.9,18.64,SSW,198,4.0,5.0,77,0.00,,,0.00,492,Wunderground v.1.15,2013-08-20 14:35:00,
2013-08-20 09:45:00,78.0,69.0,18.64,SSW,199,3.0,4.0,74,0.00,,,0.00,524,Wunderground v.1.15,2013-08-20 14:45:00,
2013-08-20 09:55:00,77.7,69.5,18.64,South,189,3.0,7.0,76,0.00,,,0.00,552,Wunderground v.1.15,2013-08-20 14:55:00,
2013-08-20 10:00:00,77.8,68.8,18.64,SSW,207,4.0,4.0,74,0.00,,,0.00,564,Wunderground v.1.15,2013-08-20 15:00:00,
2013-08-20 10:10:00,78.4,69.0,18.64,SSW,206,3.0,3.0,73,0.00,,,0.00,589,Wunderground v.1.15,2013-08-20 15:10:00,
2013-08-20 10:20:00,79.4,69.6,18.64,SW,221,4.0,8.0,72,0.00,,,0.00,621,Wunderground v.1.15,2013-08-20 15:20:00,
2013-08-20 10:25:00,80.0,69.7,18.64,SSW,211,4.0,8.0,71,0.00,,,0.00,633,Wunderground v.1.15,2013-08-20 15:25:00,
2013-08-20 10:35:00,80.7,70.4,18.64,SSW,207,4.0,5.0,71,0.00,,,0.00,661,Wunderground v.1.15,2013-08-20 15:35:00,
2013-08-20 10:40:00,81.2,70.1,18.64,SSW,200,3.0,3.0,69,0.00,,,0.00,675,Wunderground v.1.15,2013-08-20 15:40:00,
2013-08-20 10:50:00,81.6,69.6,18.64,SW,217,3.0,4.0,67,0.00,,,0.00,698,Wunderground v.1.15,2013-08-20 15:50:00,
2013-08-20 11:00:00,83.0,70.0,18.64,SW,230,3.0,5.0,65,0.00,,,0.00,721,Wunderground v.1.15,2013-08-20 16:00:00,
2013-08-20 11:05:00,83.1,69.7,18.64,SSE,166,4.0,5.0,64,0.00,,,0.00,729,Wunderground v.1.15,2013-08-20 16:05:00,
2013-08-20 11:15:00,82.2,68.3,18.64,SSW,212,3.0,7.0,63,0.00,,,0.00,751,Wunderground v.1.15,2013-08-20 16:15:00,
2013-08-20 11:20:00,82.8,68.0,18.64,SSW,205,4.0,5.0,61,0.00,,,0.00,758,Wunderground v.1.15,2013-08-20 16:20:00,
2013-08-20 11:30:00,83.5,68.2,18.64,SSE,167,5.0,5.0,60,0.00,,,0.00,777,Wunderground v.1.15,2013-08-20 16:30:00,
2013-08-20 11:40:00,83.9,67.5,18.64,SSE,165,6.0,6.0,58,0.00,,,0.00,793,Wunderground v.1.15,2013-08-20 16:40:00,
2013-08-20 11:50:00,83.7,65.3,18.64,SSE,150,4.0,4.0,54,0.00,,,0.00,809,Wunderground v.1.15,2013-08-20 16:50:00,
2013-08-20 12:00:00,83.7,68.3,18.64,SSW,207,3.0,8.0,60,0.00,,,0.00,821,Wunderground v.1.15,2013-08-20 17:00:00,
2013-08-20 12:05:00,84.3,66.9,18.64,South,183,4.0,8.0,56,0.00,,,0.00,828,Wunderground v.1.15,2013-08-20 17:05:00,
2013-08-20 12:15:00,84.1,67.7,18.64,South,190,2.0,5.0,58,0.00,,,0.00,844,Wunderground v.1.15,2013-08-20 17:15:00,
2013-08-20 12:25:00,84.1,66.7,18.64,SW,218,3.0,4.0,56,0.00,,,0.00,858,Wunderground v.1.15,2013-08-20 17:25:00,
2013-08-20 12:35:00,84.9,66.9,18.64,South,188,3.0,4.0,55,0.00,,,0.00,863,Wunderground v.1.15,2013-08-20 17:35:00,
2013-08-20 12:40:00,84.7,66.2,18.64,SW,223,3.0,8.0,54,0.00,,,0.00,870,Wunderground v.1.15,2013-08-20 17:40:00,
2013-08-20 12:50:00,85.7,66.0,19.72,SW,222,4.0,9.0,52,0.00,,,0.00,870,Wunderground v.1.15,2013-08-20 17:50:00,
2013-08-20 13:00:00,86.2,65.4,19.72,SW,219,6.0,6.0,50,0.00,,,0.00,874,Wunderground v.1.15,2013-08-20 18:00:00,
2013-08-20 13:05:00,86.6,64.6,19.72,ESE,121,5.0,6.0,48,0.00,,,0.00,872,Wunderground v.1.15,2013-08-20 18:05:00,
2013-08-20 13:15:00,86.1,65.3,19.72,SSW,204,4.0,5.0,50,0.00,,,0.00,868,Wunderground v.1.15,2013-08-20 18:15:00,
2013-08-20 13:25:00,86.2,65.9,19.72,SW,222,5.0,5.0,51,0.00,,,0.00,868,Wunderground v.1.15,2013-08-20 18:25:00,
2013-08-20 13:35:00,86.3,64.3,19.72,SW,226,5.0,7.0,48,0.00,,,0.00,865,Wunderground v.1.15,2013-08-20 18:35:00,
2013-08-20 13:45:00,86.7,64.7,19.72,South,185,5.0,7.0,48,0.00,,,0.00,861,Wunderground v.1.15,2013-08-20 18:45:00,
2013-08-20 13:50:00,87.0,65.5,19.72,SW,231,5.0,8.0,49,0.00,,,0.00,858,Wunderground v.1.15,2013-08-20 18:50:00,
2013-08-20 14:00:00,86.6,65.2,19.72,SSW,209,3.0,7.0,49,0.00,,,0.00,854,Wunderground v.1.15,2013-08-20 19:00:00,
2013-08-20 14:10:00,85.9,64.5,19.72,SSE,166,4.0,4.0,49,0.00,,,0.00,853,Wunderground v.1.15,2013-08-20 19:10:00,
2013-08-20 14:15:00,85.5,64.7,19.72,SSW,197,3.0,4.0,50,0.00,,,0.00,844,Wunderground v.1.15,2013-08-20 19:15:00,
2013-08-20 14:25:00,85.9,65.1,19.72,South,190,2.0,8.0,50,0.00,,,0.00,840,Wunderground v.1.15,2013-08-20 19:25:00,
2013-08-20 14:35:00,87.0,66.1,19.72,SW,215,3.0,8.0,50,0.00,,,0.00,824,Wunderground v.1.15,2013-08-20 19:35:00,
2013-08-20 14:45:00,87.3,65.2,19.72,WSW,239,6.0,6.0,48,0.00,,,0.00,814,Wunderground v.1.15,2013-08-20 19:45:00,
2013-08-20 14:50:00,87.0,64.9,19.72,SSW,203,5.0,6.0,48,0.00,,,0.00,800,Wunderground v.1.15,2013-08-20 19:50:00,
2013-08-20 15:00:00,87.5,65.4,19.72,SW,223,5.0,5.0,48,0.00,,,0.00,789,Wunderground v.1.15,2013-08-20 20:00:00,
2013-08-20 15:10:00,86.9,66.0,19.72,SW,216,4.0,6.0,50,0.00,,,0.00,768,Wunderground v.1.15,2013-08-20 20:10:00,
2013-08-20 15:20:00,87.1,65.6,19.72,SSW,202,4.0,6.0,49,0.00,,,0.00,745,Wunderground v.1.15,2013-08-20 20:20:00,
2013-08-20 15:25:00,87.2,-99.9,19.72,SSW,193,4.0,6.0,255,0.00,,,0.00,740,Wunderground v.1.15,2013-08-20 20:25:00,
2013-08-20 15:35:00,86.1,65.3,19.72,South,188,3.0,4.0,50,0.00,,,0.00,719,Wunderground v.1.15,2013-08-20 20:35:00,
2013-08-20 15:45:00,87.0,66.1,19.72,SW,220,2.0,5.0,50,0.00,,,0.00,698,Wunderground v.1.15,2013-08-20 20:45:00,
2013-08-20 15:55:00,87.0,66.7,19.72,SSW,202,3.0,7.0,51,0.00,,,0.00,677,Wunderground v.1.15,2013-08-20 20:55:00,
2013-08-20 16:00:00,87.4,67.1,19.72,SSW,205,4.0,4.0,51,0.00,,,0.00,659,Wunderground v.1.15,2013-08-20 21:00:00,
2013-08-20 16:20:00,87.0,66.1,26.90,SSW,213,4.0,4.0,50,0.00,,,0.00,612,Wunderground v.1.15,2013-08-20 21:20:00,
2013-08-20 16:30:00,86.9,68.3,26.90,SSW,204,4.0,6.0,54,0.00,,,0.00,582,Wunderground v.1.15,2013-08-20 21:30:00,
2013-08-20 16:40:00,86.3,66.0,26.90,SSW,203,3.0,5.0,51,0.00,,,0.00,554,Wunderground v.1.15,2013-08-20 21:40:00,
2013-08-20 16:45:00,86.3,66.0,26.90,SSW,197,3.0,5.0,51,0.00,,,0.00,538,Wunderground v.1.15,2013-08-20 21:45:00,
2013-08-20 16:55:00,86.3,67.2,26.90,SW,218,4.0,5.0,53,0.00,,,0.00,512,Wunderground v.1.15,2013-08-20 21:55:00,
2013-08-20 17:05:00,85.6,66.0,26.90,SSW,196,3.0,6.0,52,0.00,,,0.00,476,Wunderground v.1.15,2013-08-20 22:05:00,
2013-08-20 17:10:00,85.9,66.8,26.90,SSW,202,3.0,7.0,53,0.00,,,0.00,464,Wunderground v.1.15,2013-08-20 22:10:00,
2013-08-20 17:20:00,86.1,67.5,26.90,South,177,3.0,3.0,54,0.00,,,0.00,431,Wunderground v.1.15,2013-08-20 22:20:00,
2013-08-20 17:30:00,85.9,66.8,26.90,SSW,209,3.0,3.0,53,0.00,,,0.00,399,Wunderground v.1.15,2013-08-20 22:30:00,
2013-08-20 17:40:00,85.1,66.0,26.90,SSE,162,1.0,1.0,53,0.00,,,0.00,366,Wunderground v.1.15,2013-08-20 22:40:00,
2013-08-20 17:50:00,85.1,67.6,26.90,SSW,194,2.0,2.0,56,0.00,,,0.00,334,Wunderground v.1.15,2013-08-20 22:50:00,
2013-08-20 17:55:00,85.1,66.6,26.90,SSW,208,2.0,5.0,54,0.00,,,0.00,315,Wunderground v.1.15,2013-08-20 22:55:00,
2013-08-20 18:05:00,84.9,67.5,26.90,SSW,210,3.0,3.0,56,0.00,,,0.00,279,Wunderground v.1.15,2013-08-20 23:05:00,
2013-08-20 18:15:00,84.8,67.4,26.90,SSW,213,3.0,3.0,56,0.00,,,0.00,257,Wunderground v.1.15,2013-08-20 23:15:00,
2013-08-20 18:20:00,84.6,67.2,26.90,SW,219,2.0,2.0,56,0.00,,,0.00,241,Wunderground v.1.15,2013-08-20 23:20:00,
2013-08-20 18:30:00,84.1,66.7,26.90,SSW,206,2.0,3.0,56,0.00,,,0.00,207,Wunderground v.1.15,2013-08-20 23:30:00,
2013-08-20 18:40:00,83.8,66.9,26.90,SSW,200,2.0,2.0,57,0.00,,,0.00,176,Wunderground v.1.15,2013-08-20 23:40:00,
2013-08-20 18:50:00,83.3,67.0,26.90,SSW,206,1.0,1.0,58,0.00,,,0.00,149,Wunderground v.1.15,2013-08-20 23:50:00,
2013-08-20 19:00:00,82.9,66.6,26.90,SSW,212,1.0,1.0,58,0.00,,,0.00,120,Wunderground v.1.15,2013-08-21 00:00:00,
2013-08-20 19:05:00,82.6,66.8,26.90,SSW,212,1.0,1.0,59,0.00,,,0.00,105,Wunderground v.1.15,2013-08-21 00:05:00,
2013-08-20 19:15:00,82.0,66.7,26.90,SSW,212,0.0,1.0,60,0.00,,,0.00,79,Wunderground v.1.15,2013-08-21 00:15:00,
2013-08-20 19:25:00,81.3,67.0,26.90,SSW,212,0.0,0.0,62,0.00,,,0.00,54,Wunderground v.1.15,2013-08-21 00:25:00,
2013-08-20 19:35:00,80.7,66.5,26.90,SSW,211,0.0,0.0,62,0.00,,,0.00,32,Wunderground v.1.15,2013-08-21 00:35:00,
2013-08-20 19:45:00,80.2,66.5,26.90,SSW,211,0.0,0.0,63,0.00,,,0.00,14,Wunderground v.1.15,2013-08-21 00:45:00,
2013-08-20 19:50:00,79.9,66.2,26.90,SSW,211,0.0,0.0,63,0.00,,,0.00,11,Wunderground v.1.15,2013-08-21 00:50:00,
2013-08-20 20:00:00,79.3,66.5,26.90,SSW,211,0.0,0.0,65,0.00,,,0.00,0,Wunderground v.1.15,2013-08-21 01:00:00,
2013-08-20 20:10:00,78.9,66.1,26.90,SSE,167,0.0,0.0,65,0.00,,,0.00,0,Wunderground v.1.15,2013-08-21 01:10:00,
2013-08-20 20:15:00,78.7,66.4,26.90,SSE,167,0.0,0.0,66,0.00,,,0.00,0,Wunderground v.1.15,2013-08-21 01:15:00,
2013-08-20 20:25:00,78.3,66.4,26.90,SSE,167,0.0,2.0,67,0.00,,,0.00,0,Wunderground v.1.15,2013-08-21 01:25:00,
2013-08-20 20:35:00,77.8,66.4,26.90,SSE,167,0.0,0.0,68,0.00,,,0.00,0,Wunderground v.1.15,2013-08-21 01:35:00,
2013-08-20 20:45:00,76.9,66.4,26.90,SSE,167,0.0,0.0,70,0.00,,,0.00,0,Wunderground v.1.15,2013-08-21 01:45:00,
2013-08-20 20:50:00,76.7,66.2,26.90,SSE,167,0.0,0.0,70,0.00,,,0.00,0,Wunderground v.1.15,2013-08-21 01:50:00,
2013-08-20 21:00:00,76.6,66.1,26.90,SSE,167,0.0,2.0,70,0.00,,,0.00,0,Wunderground v.1.15,2013-08-21 02:00:00,
2013-08-20 21:05:00,76.5,66.4,26.90,SSE,166,0.0,2.0,71,0.00,,,0.00,0,Wunderground v.1.15,2013-08-21 02:05:00,
2013-08-20 21:15:00,76.2,66.1,26.90,SSE,166,0.0,0.0,71,0.00,,,0.00,0,Wunderground v.1.15,2013-08-21 02:15:00,
2013-08-20 21:25:00,75.9,66.6,26.90,SSE,166,1.0,2.0,73,0.00,,,0.00,0,Wunderground v.1.15,2013-08-21 02:25:00,
2013-08-20 21:30:00,75.6,66.7,26.90,SSE,165,1.0,2.0,74,0.00,,,0.00,0,Wunderground v.1.15,2013-08-21 02:30:00,
2013-08-20 21:40:00,75.4,66.9,26.90,SSE,161,1.0,1.0,75,0.00,,,0.00,0,Wunderground v.1.15,2013-08-21 02:40:00,
2013-08-20 21:50:00,74.7,67.0,26.90,SSE,159,0.0,2.0,77,0.00,,,0.00,0,Wunderground v.1.15,2013-08-21 02:50:00,
2013-08-20 21:55:00,74.5,66.8,26.90,SSE,159,1.0,3.0,77,0.00,,,0.00,0,Wunderground v.1.15,2013-08-21 02:55:00,
2013-08-20 22:05:00,74.2,66.9,26.90,SSE,155,2.0,3.0,78,0.00,,,0.00,0,Wunderground v.1.15,2013-08-21 03:05:00,
2013-08-20 22:15:00,74.0,66.7,26.90,SSE,154,1.0,2.0,78,0.00,,,0.00,0,Wunderground v.1.15,2013-08-21 03:15:00,
2013-08-20 22:25:00,73.8,66.5,26.90,SSE,153,2.0,3.0,78,0.00,,,0.00,0,Wunderground v.1.15,2013-08-21 03:25:00,
2013-08-20 22:30:00,73.8,66.5,26.90,SSE,153,2.0,3.0,78,0.00,,,0.00,0,Wunderground v.1.15,2013-08-21 03:30:00,
2013-08-20 22:40:00,73.6,66.7,26.90,SSE,149,2.0,3.0,79,0.00,,,0.00,0,Wunderground v.1.15,2013-08-21 03:40:00,
2013-08-20 22:50:00,73.4,66.5,26.90,SSE,149,2.0,2.0,79,0.00,,,0.00,0,Wunderground v.1.15,2013-08-21 03:50:00,
2013-08-20 22:55:00,73.1,66.2,26.90,SSE,149,1.0,2.0,79,0.00,,,0.00,0,Wunderground v.1.15,2013-08-21 03:55:00,
2013-08-20 23:05:00,73.4,66.5,26.90,SSE,149,3.0,3.0,79,0.00,,,0.00,0,Wunderground v.1.15,2013-08-21 04:05:00,
2013-08-20 23:10:00,73.2,66.3,26.90,SSE,149,2.0,2.0,79,0.00,,,0.00,0,Wunderground v.1.15,2013-08-21 04:10:00,
2013-08-20 23:15:00,73.0,66.1,26.90,SSE,152,1.0,2.0,79,0.00,,,0.00,0,Wunderground v.1.15,2013-08-21 04:15:00,
2013-08-20 23:20:00,72.7,66.2,26.90,SSE,152,0.0,1.0,80,0.00,,,0.00,0,Wunderground v.1.15,2013-08-21 04:20:00,
2013-08-20 23:25:00,72.6,66.1,26.90,SSE,152,0.0,1.0,80,0.00,,,0.00,0,Wunderground v.1.15,2013-08-21 04:25:00,
2013-08-20 23:30:00,72.5,66.0,26.90,SSE,152,1.0,1.0,80,0.00,,,0.00,0,Wunderground v.1.15,2013-08-21 04:30:00,
2013-08-20 23:40:00,72.6,66.4,26.90,SSE,152,2.0,2.0,81,0.00,,,0.00,0,Wunderground v.1.15,2013-08-21 04:40:00,
2013-08-20 23:50:00,72.4,66.2,26.90,SSE,152,1.0,2.0,81,0.00,,,0.00,0,Wunderground v.1.15,2013-08-21 04:50:00,
2013-08-20 23:55:00,72.4,66.2,26.90,SSE,152,2.0,2.0,81,0.00,,,0.00,0,Wunderground v.1.15,2013-08-21 04:55:00,